Time;durP1;ratioP1;P1;durP2;ratioP2;P2;SDS_P1;SDS_P2;PMS_P1;PMS_P2;Temp;Humidity;BMP_temperature;BMP_pressure;BME280_temperature;BME280_humidity;BME280_pressure;Samples;Min_cycle;Max_cycle;Signal;HPM_P1;HPM_P2
2022/06/18 00:00:25;;;;;;;6.40;5.80;;;26.10;96.70;;;;;;4950985;28;20049;-79
2022/06/18 00:02:53;;;;;;;9.20;6.22;;;26.00;96.70;;;;;;4964907;28;20054;-79
2022/06/18 00:05:22;;;;;;;7.65;6.57;;;26.10;96.70;;;;;;4967335;28;20046;-79
2022/06/18 00:07:53;;;;;;;7.93;6.05;;;26.20;96.70;;;;;;4954070;28;20074;-79
2022/06/18 00:10:29;;;;;;;7.43;6.40;;;26.20;96.70;;;;;;4952736;28;20054;-79
2022/06/18 00:15:58;;;;;;;7.38;6.70;;;26.20;96.70;;;;;;4953377;28;20051;-79
2022/06/18 00:18:27;;;;;;;7.10;6.30;;;26.30;96.70;;;;;;4964904;28;20508;-79
2022/06/18 00:20:55;;;;;;;7.22;6.40;;;26.20;96.70;;;;;;4963256;28;20038;-79
2022/06/18 00:23:23;;;;;;;7.57;6.68;;;26.10;96.70;;;;;;4962951;28;20047;-78
2022/06/18 00:25:52;;;;;;;7.50;6.60;;;26.00;96.70;;;;;;4967743;28;20586;-79
2022/06/18 00:28:23;;;;;;;9.70;6.82;;;26.00;96.70;;;;;;4962067;28;20043;-79
2022/06/18 00:30:52;;;;;;;6.43;5.82;;;26.00;96.70;;;;;;4964742;28;20582;-79
2022/06/18 00:33:23;;;;;;;8.02;5.68;;;26.00;96.70;;;;;;4964346;28;20081;-79
2022/06/18 00:35:58;;;;;;;8.40;6.47;;;26.10;96.70;;;;;;4967716;28;20043;-79
2022/06/18 00:38:28;;;;;;;6.90;6.30;;;26.10;96.70;;;;;;4965759;28;20386;-79
2022/06/18 00:40:57;;;;;;;7.72;6.72;;;26.00;96.70;;;;;;4950847;28;20050;-79
2022/06/18 00:43:30;;;;;;;6.93;6.22;;;26.00;96.70;;;;;;4963833;28;20046;-79
2022/06/18 00:46:03;;;;;;;9.15;6.57;;;26.00;96.70;;;;;;4969136;28;20051;-79
2022/06/18 00:48:38;;;;;;;7.05;6.38;;;26.00;96.70;;;;;;4966003;28;20051;-79
2022/06/18 00:51:13;;;;;;;9.25;6.78;;;25.90;96.70;;;;;;4968847;28;20065;-79
2022/06/18 00:53:45;;;;;;;7.00;6.30;;;25.70;96.70;;;;;;4966085;28;20599;-78
2022/06/18 00:56:37;;;;;;;7.82;7.03;;;25.70;96.70;;;;;;4946579;28;20055;-79
2022/06/18 00:59:12;;;;;;;7.38;6.18;;;25.80;96.70;;;;;;4950459;28;20413;-79
2022/06/18 01:01:45;;;;;;;8.85;6.32;;;25.80;96.70;;;;;;4969569;28;20043;-79
2022/06/18 01:04:24;;;;;;;8.10;7.30;;;25.70;96.70;;;;;;4964414;28;20126;-79
2022/06/18 01:07:00;;;;;;;8.82;6.82;;;25.50;96.70;;;;;;4937078;28;20143;-79
2022/06/18 01:09:28;;;;;;;7.53;6.18;;;25.30;96.70;;;;;;4959627;28;20413;-79
2022/06/18 01:11:57;;;;;;;7.82;5.93;;;25.30;96.70;;;;;;4963693;28;20053;-79
2022/06/18 01:14:27;;;;;;;6.90;6.30;;;25.40;96.70;;;;;;4950114;28;20061;-79
2022/06/18 01:16:59;;;;;;;8.27;6.20;;;25.40;96.70;;;;;;4952285;28;20050;-80
2022/06/18 01:19:32;;;;;;;7.10;6.20;;;25.50;96.70;;;;;;4968402;28;20047;-80
2022/06/18 01:22:12;;;;;;;6.57;6.05;;;25.50;96.70;;;;;;4953819;28;20051;-80
2022/06/18 01:24:44;;;;;;;7.82;5.95;;;25.50;96.70;;;;;;4952887;28;20454;-79
2022/06/18 01:27:14;;;;;;;11.02;6.82;;;25.60;96.70;;;;;;4963339;28;20054;-80
2022/06/18 01:29:43;;;;;;;6.65;5.93;;;25.50;96.70;;;;;;4964188;28;20070;-79
2022/06/18 01:32:14;;;;;;;12.30;7.55;;;25.50;96.70;;;;;;4963368;28;20390;-80
2022/06/18 01:34:44;;;;;;;9.00;6.45;;;25.40;96.70;;;;;;4934582;28;20078;-79
2022/06/18 01:37:12;;;;;;;9.38;6.80;;;25.40;96.70;;;;;;4968376;28;20042;-79
2022/06/18 01:39:46;;;;;;;7.15;6.45;;;25.40;96.70;;;;;;4951398;28;20099;-79
2022/06/18 01:42:20;;;;;;;7.45;6.70;;;25.30;96.70;;;;;;4967785;28;20142;-79
2022/06/18 01:44:51;;;;;;;8.43;7.05;;;25.40;96.70;;;;;;4964211;28;20047;-79
2022/06/18 01:47:31;;;;;;;8.05;7.25;;;25.30;96.70;;;;;;4966196;28;20047;-79
2022/06/18 01:50:04;;;;;;;7.97;7.13;;;25.30;96.70;;;;;;4961628;28;20039;-79
2022/06/18 01:52:36;;;;;;;9.05;6.40;;;25.40;96.70;;;;;;4965857;28;20066;-79
2022/06/18 01:55:15;;;;;;;9.43;7.20;;;25.30;96.70;;;;;;4964431;28;20069;-80
2022/06/18 01:57:48;;;;;;;8.57;6.80;;;25.30;96.70;;;;;;4968894;28;20057;-79
2022/06/18 02:00:22;;;;;;;9.30;6.93;;;25.30;96.70;;;;;;4963981;28;20051;-79
2022/06/18 02:02:59;;;;;;;10.30;6.68;;;25.30;96.70;;;;;;4970820;28;20508;-79
2022/06/18 02:05:29;;;;;;;7.40;6.25;;;25.30;96.70;;;;;;4953506;28;20046;-79
2022/06/18 02:07:59;;;;;;;8.55;6.75;;;25.30;96.70;;;;;;4969348;28;20062;-79
2022/06/18 02:10:31;;;;;;;7.65;6.15;;;25.30;96.70;;;;;;4963363;28;20133;-79
2022/06/18 02:13:03;;;;;;;7.32;6.07;;;25.30;96.70;;;;;;4963591;28;20065;-79
2022/06/18 02:15:35;;;;;;;8.80;6.45;;;25.30;96.70;;;;;;4951992;28;20745;-79
2022/06/18 02:18:06;;;;;;;9.18;6.80;;;25.10;96.70;;;;;;4939367;28;20054;-79
2022/06/18 02:20:39;;;;;;;8.02;6.47;;;25.10;96.70;;;;;;4963362;28;20563;-79
2022/06/18 02:23:09;;;;;;;8.82;6.22;;;25.00;96.70;;;;;;4946827;28;20077;-79
2022/06/18 02:25:38;;;;;;;9.20;6.30;;;25.00;96.70;;;;;;4945119;28;20074;-79
2022/06/18 02:28:13;;;;;;;9.57;6.60;;;24.90;96.70;;;;;;4948967;28;20433;-79
2022/06/18 02:30:42;;;;;;;7.85;5.80;;;24.80;96.70;;;;;;4965994;28;20047;-79
2022/06/18 02:33:28;;;;;;;8.77;6.10;;;24.70;96.70;;;;;;4963844;28;20042;-79
2022/06/18 02:35:58;;;;;;;7.40;6.43;;;24.70;96.70;;;;;;4952662;28;20058;-79
2022/06/18 02:38:26;;;;;;;10.82;7.63;;;24.80;96.70;;;;;;4964296;28;20066;-79
2022/06/18 02:40:56;;;;;;;9.40;6.88;;;24.80;96.70;;;;;;4967360;28;20051;-79
2022/06/18 02:43:24;;;;;;;7.35;6.47;;;24.80;96.70;;;;;;4964130;28;20046;-79
2022/06/18 02:45:55;;;;;;;10.13;7.20;;;24.80;96.70;;;;;;4966627;28;20554;-79
2022/06/18 02:48:26;;;;;;;11.93;7.70;;;24.60;96.70;;;;;;4957478;28;20609;-79
2022/06/18 02:50:57;;;;;;;7.50;6.47;;;24.60;96.70;;;;;;4958722;28;20051;-79
2022/06/18 02:53:27;;;;;;;8.82;6.85;;;24.50;96.70;;;;;;4961894;28;20460;-79
2022/06/18 02:56:14;;;;;;;10.32;6.75;;;24.60;96.70;;;;;;4970752;28;20047;-79
2022/06/18 02:58:48;;;;;;;7.93;7.15;;;24.60;96.70;;;;;;4948737;28;20412;-78
2022/06/18 03:01:18;;;;;;;9.60;7.25;;;24.70;96.70;;;;;;4953579;28;20054;-77
2022/06/18 03:03:49;;;;;;;7.55;6.78;;;24.60;96.70;;;;;;4967984;28;20691;-78
2022/06/18 03:06:19;;;;;;;7.28;6.47;;;24.60;96.70;;;;;;4965057;28;20057;-78
2022/06/18 03:08:49;;;;;;;9.15;6.50;;;24.70;96.70;;;;;;4969233;28;20050;-78
2022/06/18 03:14:10;;;;;;;8.02;6.90;;;24.60;96.70;;;;;;4967613;28;20213;-78
2022/06/18 03:16:38;;;;;;;8.30;7.05;;;24.60;96.70;;;;;;4954363;28;20050;-78
2022/06/18 03:19:06;;;;;;;9.57;7.57;;;24.60;96.70;;;;;;4952457;28;20512;-78
2022/06/18 03:21:38;;;;;;;13.63;7.82;;;24.40;96.70;;;;;;4949398;28;20057;-78
2022/06/18 03:24:07;;;;;;;13.07;7.28;;;24.30;96.70;;;;;;4951946;28;20065;-78
2022/06/18 03:26:38;;;;;;;10.02;7.13;;;24.30;96.70;;;;;;4970448;28;20051;-78
2022/06/18 03:29:13;;;;;;;9.60;7.00;;;24.20;96.70;;;;;;4951120;28;20061;-78
2022/06/18 03:31:41;;;;;;;9.10;6.90;;;24.20;96.70;;;;;;4962839;28;20093;-78
2022/06/18 03:34:10;;;;;;;7.57;6.63;;;24.20;96.70;;;;;;4966623;28;20133;-78
2022/06/18 03:36:38;;;;;;;7.47;6.20;;;24.20;96.70;;;;;;4969804;28;20043;-78
2022/06/18 03:39:09;;;;;;;9.82;6.57;;;24.30;96.70;;;;;;4967388;28;20928;-78
2022/06/18 03:41:38;;;;;;;9.63;6.32;;;24.30;96.70;;;;;;4970079;28;20050;-78
2022/06/18 03:44:06;;;;;;;9.15;6.18;;;24.20;96.70;;;;;;4976348;28;20058;-78
2022/06/18 03:46:36;;;;;;;9.82;6.65;;;24.20;96.70;;;;;;4958095;28;20104;-78
2022/06/18 03:49:19;;;;;;;8.63;6.18;;;24.30;96.70;;;;;;4967198;28;20047;-78
2022/06/18 03:51:48;;;;;;;8.30;6.13;;;24.30;96.70;;;;;;4952621;28;20046;-79
2022/06/18 03:54:15;;;;;;;9.88;6.00;;;24.30;96.70;;;;;;4968694;28;20077;-78
2022/06/18 03:56:45;;;;;;;7.35;6.13;;;24.30;96.70;;;;;;4964387;28;20086;-78
2022/06/18 03:59:13;;;;;;;7.32;6.32;;;24.20;96.70;;;;;;4932899;28;20047;-78
2022/06/18 04:01:42;;;;;;;7.22;5.78;;;24.20;96.70;;;;;;4948678;28;20047;-78
2022/06/18 04:04:12;;;;;;;7.63;6.13;;;24.30;96.70;;;;;;4965195;28;20051;-78
2022/06/18 04:06:44;;;;;;;7.90;6.38;;;24.30;96.70;;;;;;4949356;28;20057;-78
2022/06/18 04:09:31;;;;;;;8.48;6.13;;;24.20;96.70;;;;;;4964389;28;20570;-78
2022/06/18 04:12:01;;;;;;;12.13;6.72;;;24.20;96.70;;;;;;4949840;28;20051;-78
2022/06/18 04:14:39;;;;;;;7.05;6.13;;;24.30;96.70;;;;;;4950862;28;20058;-79
2022/06/18 04:17:21;;;;;;;8.23;6.40;;;24.20;96.70;;;;;;4966892;28;20042;-78
2022/06/18 04:19:49;;;;;;;7.93;6.47;;;24.20;96.70;;;;;;4965022;28;20061;-78
2022/06/18 04:22:18;;;;;;;7.70;6.88;;;24.10;96.70;;;;;;4965983;28;20133;-79
2022/06/18 04:25:00;;;;;;;7.95;7.15;;;24.30;96.70;;;;;;4968580;28;20058;-78
2022/06/18 04:27:30;;;;;;;9.43;7.05;;;24.30;96.70;;;;;;4968306;28;20133;-78
2022/06/18 04:29:58;;;;;;;8.23;7.22;;;24.10;96.70;;;;;;4954104;28;20130;-78
2022/06/18 04:32:45;;;;;;;10.27;6.93;;;24.20;96.70;;;;;;4960996;28;20058;-78
2022/06/18 04:35:13;;;;;;;11.45;7.90;;;24.20;96.70;;;;;;4966791;28;20065;-78
2022/06/18 04:37:55;;;;;;;9.93;7.93;;;24.10;96.70;;;;;;4956818;28;20087;-78
2022/06/18 04:40:41;;;;;;;;;;;24.20;96.70;;;;;;4965096;28;20054;-78
2022/06/18 04:43:39;;;;;;;8.57;7.20;;;24.10;96.70;;;;;;4963786;28;19933;-79
2022/06/18 04:46:09;;;;;;;11.85;8.00;;;24.30;96.70;;;;;;4967933;28;20468;-78
2022/06/18 04:48:40;;;;;;;11.60;7.40;;;24.40;96.70;;;;;;4965907;28;20050;-79
2022/06/18 04:51:09;;;;;;;10.88;7.82;;;24.40;96.70;;;;;;4965357;28;20449;-79
2022/06/18 04:53:37;;;;;;;10.35;7.43;;;24.40;96.70;;;;;;4935068;28;20047;-79
2022/06/18 04:56:09;;;;;;;13.23;8.07;;;24.40;96.70;;;;;;4972122;28;20038;-79
2022/06/18 04:58:42;;;;;;;8.30;7.45;;;24.40;96.70;;;;;;4956168;28;20074;-78
2022/06/18 05:01:14;;;;;;;9.63;7.35;;;24.30;96.70;;;;;;4964344;28;20055;-78
2022/06/18 05:04:08;;;;;;;8.50;7.65;;;24.20;96.70;;;;;;4957568;28;20067;-80
2022/06/18 05:06:48;;;;;;;11.05;7.93;;;24.20;96.70;;;;;;4969775;28;20478;-79
2022/06/18 05:09:29;;;;;;;8.93;7.82;;;24.20;96.70;;;;;;4964384;28;20409;-79
2022/06/18 05:12:20;;;;;;;9.85;8.35;;;24.30;96.70;;;;;;4950485;28;20055;-79
2022/06/18 05:14:49;;;;;;;11.27;7.97;;;24.50;96.70;;;;;;4968000;28;20078;-79
2022/06/18 05:17:23;;;;;;;10.35;7.38;;;24.40;96.70;;;;;;4969215;28;20137;-79
2022/06/18 05:19:52;;;;;;;11.68;7.53;;;24.30;96.70;;;;;;4946403;28;20055;-79
2022/06/18 05:22:20;;;;;;;8.20;7.40;;;24.40;96.70;;;;;;4967450;28;20086;-79
2022/06/18 05:24:50;;;;;;;9.52;7.85;;;24.60;96.70;;;;;;4950490;28;20100;-79
2022/06/18 05:27:25;;;;;;;11.27;7.78;;;24.40;96.70;;;;;;4952113;28;20477;-78
2022/06/18 05:29:55;;;;;;;8.45;7.65;;;24.50;96.70;;;;;;4963959;28;20061;-79
2022/06/18 05:32:37;;;;;;;8.40;7.57;;;24.60;96.70;;;;;;4964662;28;20626;-79
2022/06/18 05:35:07;;;;;;;11.50;8.48;;;24.60;96.70;;;;;;4947888;28;20066;-79
2022/06/18 05:37:36;;;;;;;10.18;7.78;;;24.60;96.70;;;;;;4949501;28;20061;-79
2022/06/18 05:40:06;;;;;;;8.13;7.32;;;24.60;96.70;;;;;;4963848;28;20080;-79
2022/06/18 05:42:35;;;;;;;10.90;8.35;;;24.60;96.70;;;;;;4947392;28;20524;-79
2022/06/18 05:45:06;;;;;;;10.25;7.82;;;24.50;96.70;;;;;;4950070;28;20655;-79
2022/06/18 05:47:34;;;;;;;10.07;7.75;;;24.50;96.70;;;;;;4937602;28;20062;-79
2022/06/18 05:50:04;;;;;;;8.52;7.22;;;24.60;96.70;;;;;;4971093;28;20105;-79
2022/06/18 05:52:34;;;;;;;9.60;8.70;;;24.80;96.70;;;;;;4965132;28;20055;-79
2022/06/18 05:55:20;;;;;;;8.45;7.18;;;24.90;96.70;;;;;;4954238;28;20053;-81
2022/06/18 05:57:58;;;;;;;9.90;7.82;;;25.00;96.70;;;;;;4971842;28;20439;-80
2022/06/18 06:00:32;;;;;;;9.65;8.05;;;25.10;96.70;;;;;;4972469;28;20084;-80
2022/06/18 06:03:04;;;;;;;11.27;8.75;;;25.10;96.70;;;;;;4951584;28;20043;-83
2022/06/18 06:05:32;;;;;;;9.50;8.52;;;25.00;96.70;;;;;;4953566;28;20109;-79
2022/06/18 06:08:03;;;;;;;8.38;7.55;;;25.00;96.70;;;;;;4968691;28;20042;-79
2022/06/18 06:13:24;;;;;;;9.07;8.20;;;25.20;96.70;;;;;;4969662;28;21329;-84
2022/06/18 06:15:54;;;;;;;8.65;7.75;;;25.30;96.70;;;;;;4962788;28;20047;-82
2022/06/18 06:18:28;;;;;;;9.02;7.75;;;25.40;96.70;;;;;;4948394;28;20054;-77
2022/06/18 06:20:59;;;;;;;9.18;7.20;;;25.50;96.70;;;;;;4966464;28;20133;-80
2022/06/18 06:23:28;;;;;;;8.43;7.47;;;25.50;96.70;;;;;;4968115;28;20051;-79
2022/06/18 06:25:56;;;;;;;7.78;7.07;;;25.60;96.70;;;;;;4958162;28;20065;-79
2022/06/18 06:28:27;;;;;;;8.43;7.43;;;25.70;96.70;;;;;;4976403;28;20039;-79
2022/06/18 06:30:57;;;;;;;8.27;6.60;;;25.80;96.70;;;;;;4968645;28;20125;-79
2022/06/18 06:33:25;;;;;;;7.82;6.65;;;25.90;96.70;;;;;;4968017;28;20035;-81
2022/06/18 06:35:54;;;;;;;7.13;6.50;;;25.90;96.70;;;;;;4954345;28;20043;-80
2022/06/18 06:38:23;;;;;;;7.72;6.18;;;26.00;96.70;;;;;;4974657;28;20085;-80
2022/06/18 06:40:51;;;;;;;9.85;5.70;;;26.10;96.70;;;;;;4976600;28;20070;-79
2022/06/18 06:43:19;;;;;;;7.00;6.03;;;26.10;96.70;;;;;;4968317;28;20035;-79
2022/06/18 06:45:47;;;;;;;8.55;5.80;;;26.20;96.70;;;;;;4975862;28;20149;-79
2022/06/18 06:48:16;;;;;;;6.93;6.22;;;26.20;96.70;;;;;;4953415;28;20566;-78
2022/06/18 06:50:48;;;;;;;7.78;6.68;;;26.30;96.70;;;;;;4939682;28;20051;-76
2022/06/18 06:53:16;;;;;;;7.80;6.05;;;26.30;96.70;;;;;;4955599;28;20047;-80
2022/06/18 06:58:31;;;;;;;9.80;6.68;;;26.40;96.70;;;;;;4968087;28;20579;-81
2022/06/18 07:01:00;;;;;;;7.30;6.60;;;26.50;96.70;;;;;;4974758;28;20125;-81
2022/06/18 07:03:33;;;;;;;8.60;6.22;;;26.60;96.70;;;;;;4951211;28;20472;-80
2022/06/18 07:06:02;;;;;;;7.88;6.30;;;26.70;96.70;;;;;;4966897;28;20059;-81
2022/06/18 07:08:31;;;;;;;9.15;6.50;;;26.80;96.70;;;;;;4967572;28;20051;-81
2022/06/18 07:11:00;;;;;;;7.32;6.57;;;26.80;96.70;;;;;;4949031;28;20047;-80
2022/06/18 07:13:30;;;;;;;8.45;7.55;;;26.80;96.70;;;;;;4969778;28;20049;-80
2022/06/18 07:15:59;;;;;;;9.52;7.32;;;26.90;96.70;;;;;;4966645;28;20086;-81
2022/06/18 07:18:31;;;;;;;7.32;6.60;;;27.00;96.70;;;;;;4950953;28;20050;-79
2022/06/18 07:21:00;;;;;;;8.07;6.55;;;27.00;96.70;;;;;;4967732;28;20057;-81
2022/06/18 07:23:29;;;;;;;7.13;6.47;;;27.00;96.70;;;;;;4966413;28;20585;-80
2022/06/18 07:25:57;;;;;;;11.00;7.07;;;27.10;96.70;;;;;;4971346;28;20058;-80
2022/06/18 07:28:26;;;;;;;6.63;5.72;;;27.20;96.70;;;;;;4951538;28;20097;-80
2022/06/18 07:30:55;;;;;;;6.45;5.85;;;27.20;96.70;;;;;;4952512;28;20042;-80
2022/06/18 07:33:25;;;;;;;8.85;6.45;;;27.30;96.70;;;;;;4953579;28;20548;-81
2022/06/18 07:35:54;;;;;;;9.88;5.93;;;27.50;96.70;;;;;;4966687;28;20038;-80
2022/06/18 07:38:22;;;;;;;7.93;5.13;;;27.50;96.70;;;;;;4953456;28;20072;-80
2022/06/18 07:40:53;;;;;;;6.40;5.28;;;27.60;96.70;;;;;;4967290;28;20035;-80
2022/06/18 07:43:28;;;;;;;6.03;5.32;;;27.60;96.70;;;;;;4952175;28;20101;-81
2022/06/18 07:45:57;;;;;;;8.00;4.20;;;27.70;96.70;;;;;;4967672;28;20492;-80
2022/06/18 07:48:25;;;;;;;6.95;3.92;;;27.80;96.70;;;;;;4966677;28;20592;-81
2022/06/18 07:50:54;;;;;;;5.13;4.10;;;27.90;96.70;;;;;;4955209;28;20093;-83
2022/06/18 07:53:24;;;;;;;4.40;4.00;;;28.10;96.70;;;;;;4964081;28;20039;-83
2022/06/18 07:55:54;;;;;;;10.23;4.85;;;28.10;96.70;;;;;;4969635;28;20054;-82
2022/06/18 07:58:23;;;;;;;4.75;3.72;;;28.20;96.70;;;;;;4939573;28;20078;-82
2022/06/18 08:00:51;;;;;;;4.90;3.67;;;28.20;96.70;;;;;;4964965;28;20078;-79
2022/06/18 08:03:19;;;;;;;5.45;3.15;;;28.20;96.70;;;;;;4976344;28;20047;-80
2022/06/18 08:05:48;;;;;;;5.35;3.38;;;28.20;96.70;;;;;;4968394;28;20050;-80
2022/06/18 08:08:17;;;;;;;4.22;3.45;;;28.30;96.70;;;;;;4949696;28;20141;-81
2022/06/18 08:11:02;;;;;;;6.90;3.60;;;28.50;96.70;;;;;;4966223;28;20130;-80
2022/06/18 08:13:30;;;;;;;3.08;2.53;;;28.50;96.70;;;;;;4969236;28;20055;-81
2022/06/18 08:15:59;;;;;;;3.58;2.53;;;28.50;96.70;;;;;;4973346;28;20097;-79
2022/06/18 08:18:27;;;;;;;3.40;3.05;;;28.60;96.70;;;;;;4972883;28;20066;-78
2022/06/18 08:20:59;;;;;;;3.55;2.63;;;28.70;96.70;;;;;;4966216;28;20058;-80
2022/06/18 08:23:29;;;;;;;4.80;2.63;;;28.70;96.70;;;;;;4964917;28;20492;-80
2022/06/18 08:25:57;;;;;;;4.97;2.40;;;28.80;96.70;;;;;;4948115;28;20058;-80
2022/06/18 08:28:25;;;;;;;5.65;2.50;;;28.80;96.70;;;;;;4970945;28;20034;-79
2022/06/18 08:30:54;;;;;;;4.15;2.15;;;28.90;96.70;;;;;;4966307;28;20071;-80
2022/06/18 08:33:22;;;;;;;3.35;2.22;;;29.00;96.70;;;;;;4964409;28;20105;-79
2022/06/18 08:35:51;;;;;;;2.58;2.08;;;29.10;96.70;;;;;;4970041;28;20731;-80
2022/06/18 08:38:19;;;;;;;4.38;2.10;;;29.20;96.70;;;;;;4968248;28;20046;-80
2022/06/18 08:41:04;;;;;;;5.22;1.98;;;29.30;96.70;;;;;;4968909;28;20151;-80
2022/06/18 08:44:16;;;;;;;4.65;2.47;;;29.30;96.70;;;;;;4956928;28;20117;-80
2022/06/18 08:46:52;;;;;;;4.70;2.35;;;29.30;96.70;;;;;;4947865;28;20422;-80
2022/06/18 08:49:47;;;;;;;3.00;2.13;;;29.30;96.70;;;;;;4950371;28;20437;-81
2022/06/18 08:52:30;;;;;;;3.63;2.28;;;29.40;96.70;;;;;;4969629;28;20038;-80
2022/06/18 08:55:05;;;;;;;3.53;1.98;;;29.50;96.70;;;;;;4951512;28;20134;-81
2022/06/18 08:57:40;;;;;;;3.63;2.20;;;29.70;96.70;;;;;;4950148;28;20046;-81
2022/06/18 09:00:13;;;;;;;3.08;2.20;;;29.80;96.70;;;;;;4967674;28;20452;-82
2022/06/18 09:02:48;;;;;;;6.13;3.05;;;29.90;96.60;;;;;;4963768;28;20524;-80
2022/06/18 09:05:45;;;;;;;4.68;2.33;;;29.90;96.70;;;;;;4968997;28;20055;-79
2022/06/18 09:08:39;;;;;;;4.28;2.22;;;29.80;96.70;;;;;;4967295;28;20050;-81
2022/06/18 09:11:24;;;;;;;5.30;2.60;;;30.00;96.70;;;;;;4968188;28;20129;-81
2022/06/18 09:14:00;;;;;;;4.32;2.92;;;30.10;96.60;;;;;;4948700;28;20051;-81
2022/06/18 09:16:38;;;;;;;6.50;2.97;;;30.20;96.70;;;;;;4973169;28;20461;-80
2022/06/18 09:19:12;;;;;;;5.03;2.90;;;30.10;96.40;;;;;;4971287;28;20094;-79
2022/06/18 09:21:49;;;;;;;3.83;2.67;;;30.10;96.70;;;;;;4965503;28;20038;-80
2022/06/18 09:24:22;;;;;;;2.70;2.40;;;30.10;96.70;;;;;;4969020;28;20046;-80
2022/06/18 09:26:59;;;;;;;3.50;2.70;;;30.20;96.70;;;;;;4937894;28;20142;-79
2022/06/18 09:29:35;;;;;;;4.97;2.80;;;30.30;96.70;;;;;;4929995;29;20051;-79
2022/06/18 09:32:11;;;;;;;2.75;2.53;;;30.30;96.10;;;;;;4947856;28;20058;-79
2022/06/18 09:34:45;;;;;;;2.92;2.47;;;30.40;95.70;;;;;;4931961;29;20065;-79
2022/06/18 09:37:16;;;;;;;5.60;2.58;;;30.60;95.60;;;;;;4942394;28;20047;-79
2022/06/18 09:39:48;;;;;;;5.45;2.78;;;30.60;94.60;;;;;;4932810;29;20429;-81
2022/06/18 09:42:23;;;;;;;5.65;2.90;;;30.60;94.50;;;;;;4927736;29;20043;-80
2022/06/18 09:45:05;;;;;;;4.10;2.78;;;30.70;95.70;;;;;;4932965;29;20102;-79
2022/06/18 09:47:37;;;;;;;3.35;2.50;;;30.60;94.70;;;;;;4942687;28;20505;-79
2022/06/18 09:50:14;;;;;;;3.30;2.45;;;30.70;95.70;;;;;;4928188;29;20094;-79
2022/06/18 09:52:48;;;;;;;6.53;3.28;;;30.70;94.50;;;;;;4925134;29;20189;-79
2022/06/18 09:55:20;;;;;;;3.08;2.20;;;31.00;95.90;;;;;;4948276;28;20286;-79
2022/06/18 09:57:52;;;;;;;3.83;2.03;;;31.00;92.80;;;;;;4926190;28;20055;-79
2022/06/18 10:00:25;;;;;;;3.38;1.83;;;31.00;91.20;;;;;;4939519;28;20047;-79
2022/06/18 10:02:57;;;;;;;4.90;2.05;;;31.00;90.00;;;;;;4937308;28;20347;-80
2022/06/18 10:08:17;;;;;;;2.78;2.15;;;31.40;91.00;;;;;;4947780;28;20048;-80
2022/06/18 10:10:52;;;;;;;4.05;2.40;;;31.60;89.90;;;;;;4929252;29;20201;-79
2022/06/18 10:13:24;;;;;;;4.93;2.60;;;31.70;90.00;;;;;;4930291;29;20052;-80
2022/06/18 10:16:01;;;;;;;2.28;2.08;;;31.60;89.90;;;;;;4947398;28;20041;-78
2022/06/18 10:18:43;;;;;;;;;;;31.50;89.60;;;;;;4951785;28;20051;-81
2022/06/18 10:21:19;;;;;;;3.78;1.85;;;31.50;90.50;;;;;;4937507;29;19927;-81
2022/06/18 10:23:56;;;;;;;4.88;2.20;;;31.50;89.90;;;;;;4939609;28;20062;-80
2022/06/18 10:26:35;;;;;;;4.07;2.13;;;31.70;89.50;;;;;;4946324;28;20065;-80
2022/06/18 10:29:15;;;;;;;2.53;1.85;;;31.80;89.60;;;;;;4963121;28;20702;-79
2022/06/18 10:31:55;;;;;;;3.70;2.00;;;32.10;88.00;;;;;;4965320;28;20051;-79
2022/06/18 10:34:37;;;;;;;7.05;2.35;;;32.00;88.20;;;;;;4951395;28;20047;-80
2022/06/18 10:37:15;;;;;;;3.30;1.83;;;32.00;87.90;;;;;;4961124;28;20459;-80
2022/06/18 10:40:14;;;;;;;2.85;2.08;;;32.20;88.00;;;;;;4946784;28;20191;-81
2022/06/18 10:42:55;;;;;;;3.05;2.45;;;32.40;88.50;;;;;;4954433;28;20054;-81
2022/06/18 10:45:30;;;;;;;3.08;2.10;;;32.50;87.40;;;;;;4953496;28;20071;-81
2022/06/18 10:48:00;;;;;;;4.55;2.40;;;32.40;86.10;;;;;;4960000;28;20078;-80
2022/06/18 10:50:29;;;;;;;3.63;1.95;;;32.40;84.70;;;;;;4969556;28;20049;-80
2022/06/18 10:53:00;;;;;;;3.65;2.50;;;32.50;84.70;;;;;;4966105;28;20754;-80
2022/06/18 10:55:28;;;;;;;3.08;2.10;;;32.60;86.10;;;;;;4967869;28;20061;-80
2022/06/18 10:58:07;;;;;;;2.90;2.00;;;32.50;86.10;;;;;;4961110;28;20048;-80
2022/06/18 11:00:36;;;;;;;2.85;2.08;;;32.40;86.60;;;;;;4948758;28;20047;-81
2022/06/18 11:03:18;;;;;;;3.35;2.10;;;32.60;86.30;;;;;;4948545;28;20042;-80
2022/06/18 11:05:47;;;;;;;2.83;2.30;;;32.80;85.90;;;;;;4963634;28;20464;-79
2022/06/18 11:08:22;;;;;;;6.32;2.22;;;32.70;85.20;;;;;;4962825;28;20047;-79
2022/06/18 11:10:53;;;;;;;3.03;2.45;;;32.90;85.70;;;;;;4939155;28;20412;-79
2022/06/18 11:13:27;;;;;;;3.45;2.38;;;32.90;84.10;;;;;;4967167;28;20057;-79
2022/06/18 11:16:11;;;;;;;4.30;2.20;;;33.20;85.00;;;;;;4965948;28;20054;-79
2022/06/18 11:18:46;;;;;;;4.03;2.25;;;33.20;84.90;;;;;;4953154;28;20106;-79
2022/06/18 11:21:30;;;;;;;2.33;2.13;;;33.20;85.50;;;;;;4952078;28;20047;-79
2022/06/18 11:24:02;;;;;;;2.83;2.35;;;33.40;85.70;;;;;;4955323;28;20243;-80
2022/06/18 11:26:40;;;;;;;3.58;2.22;;;33.60;85.10;;;;;;4956333;28;20161;-80
2022/06/18 11:29:18;;;;;;;3.00;2.20;;;33.70;84.80;;;;;;4975439;28;20053;-80
2022/06/18 11:31:52;;;;;;;3.50;2.50;;;33.80;83.70;;;;;;4970151;28;20057;-80
2022/06/18 11:34:27;;;;;;;5.70;2.58;;;33.70;84.00;;;;;;4966851;28;20051;-80
2022/06/18 11:36:57;;;;;;;4.22;2.38;;;33.70;85.00;;;;;;4954581;28;20051;-80
2022/06/18 11:39:32;;;;;;;3.58;2.65;;;34.00;84.10;;;;;;4966063;28;20113;-80
2022/06/18 11:42:07;;;;;;;4.95;2.42;;;33.90;83.40;;;;;;4968057;28;20061;-78
2022/06/18 11:44:41;;;;;;;2.65;2.45;;;33.80;84.90;;;;;;4970792;28;20074;-80
2022/06/18 11:47:13;;;;;;;3.80;2.67;;;34.00;85.60;;;;;;4965424;28;20052;-79
2022/06/18 11:49:52;;;;;;;3.17;2.72;;;34.20;83.00;;;;;;4967222;28;20493;-79
2022/06/18 11:52:28;;;;;;;4.18;2.63;;;34.30;83.50;;;;;;4968185;28;20035;-81
2022/06/18 11:55:03;;;;;;;3.53;2.47;;;34.20;82.70;;;;;;4956627;28;20055;-77
2022/06/18 11:57:39;;;;;;;4.47;2.65;;;34.40;83.80;;;;;;4972994;28;20145;-79
2022/06/18 12:00:14;;;;;;;3.40;3.10;;;34.40;84.60;;;;;;4966987;28;20046;-79
2022/06/18 12:02:50;;;;;;;5.55;2.95;;;34.50;84.80;;;;;;4971829;28;20048;-80
2022/06/18 12:05:23;;;;;;;;;;;34.80;83.90;;;;;;4955792;28;20046;-79
2022/06/18 12:07:55;;;;;;;2.90;2.70;;;34.70;83.50;;;;;;4971163;28;19925;-80
2022/06/18 12:10:35;;;;;;;4.50;3.10;;;34.80;83.00;;;;;;4935254;28;20043;-80
2022/06/18 12:13:13;;;;;;;3.45;3.03;;;34.60;83.10;;;;;;4965655;28;20035;-81
2022/06/18 12:15:47;;;;;;;4.03;2.63;;;34.60;83.40;;;;;;4966282;28;20043;-82
2022/06/18 12:18:22;;;;;;;4.28;2.80;;;34.90;84.30;;;;;;4963507;28;20452;-81
2022/06/18 12:21:03;;;;;;;4.43;2.70;;;35.00;81.90;;;;;;4934800;28;20053;-82
2022/06/18 12:23:49;;;;;;;5.72;3.10;;;34.70;82.10;;;;;;4961083;28;20046;-83
2022/06/18 12:26:23;;;;;;;3.40;2.88;;;34.60;83.10;;;;;;4973021;28;20058;-82
2022/06/18 12:29:09;;;;;;;4.22;2.63;;;34.60;83.60;;;;;;4966722;28;20042;-83
2022/06/18 12:31:45;;;;;;;4.65;2.90;;;34.80;83.70;;;;;;4949184;28;20687;-83
2022/06/18 12:34:22;;;;;;;3.05;2.75;;;34.70;83.30;;;;;;4963611;28;20439;-84
2022/06/18 12:37:02;;;;;;;6.68;5.15;;;34.80;83.00;;;;;;4950834;28;20046;-83
2022/06/18 12:39:36;;;;;;;11.35;4.70;;;34.90;83.30;;;;;;4947046;28;20165;-85
2022/06/18 12:42:13;;;;;;;3.63;2.88;;;34.90;83.30;;;;;;4952350;28;20508;-84
2022/06/18 12:44:48;;;;;;;3.75;2.80;;;34.90;82.80;;;;;;4967924;28;20502;-81
2022/06/18 12:47:28;;;;;;;3.22;2.92;;;35.00;83.20;;;;;;4948161;28;20070;-78
2022/06/18 12:50:05;;;;;;;4.63;2.88;;;35.20;83.30;;;;;;4962296;28;20050;-80
2022/06/18 12:52:39;;;;;;;2.95;2.63;;;35.10;81.10;;;;;;4967979;28;20050;-78
2022/06/18 12:55:18;;;;;;;2.70;2.50;;;35.30;82.90;;;;;;4937730;28;20078;-81
2022/06/18 12:58:04;;;;;;;2.97;2.67;;;35.50;81.80;;;;;;4967873;28;20059;-81
2022/06/18 13:00:38;;;;;;;4.23;2.97;;;35.60;80.80;;;;;;4966762;28;20053;-80
2022/06/18 13:03:29;;;;;;;4.15;3.00;;;35.90;82.30;;;;;;4956792;28;20698;-80
2022/06/18 13:06:03;;;;;;;5.30;3.03;;;36.00;81.20;;;;;;4963365;28;20054;-79
2022/06/18 13:08:44;;;;;;;4.28;2.90;;;36.00;80.40;;;;;;4957979;28;20051;-79
2022/06/18 13:11:20;;;;;;;4.28;2.67;;;36.00;81.00;;;;;;4961488;28;20477;-80
2022/06/18 13:14:00;;;;;;;3.20;2.58;;;36.40;82.30;;;;;;4964668;28;20505;-80
2022/06/18 13:16:36;;;;;;;5.65;3.33;;;36.90;81.60;;;;;;4952711;28;20050;-80
2022/06/18 13:19:09;;;;;;;10.57;3.35;;;37.10;81.00;;;;;;4965642;28;20105;-83
2022/06/18 13:21:38;;;;;;;5.25;2.97;;;37.20;81.20;;;;;;4969276;28;20046;-81
2022/06/18 13:30:26;;;;;;;3.95;2.70;;;36.60;81.30;;;;;;4852906;29;20678;-84
2022/06/18 13:33:03;;;;;;;4.10;3.42;;;37.20;80.60;;;;;;4831119;29;20085;-83
2022/06/18 13:35:37;;;;;;;2.90;2.67;;;37.30;79.30;;;;;;4821217;29;20447;-82
2022/06/18 13:38:14;;;;;;;4.43;2.78;;;37.30;81.40;;;;;;4831990;29;20061;-83